sensor_id;sensor_type;location;lat;lon;timestamp;temperature;humidity
47090;DHT22;32840;52.516;13.294;2023-05-07T00:00:04;10.50;99.90
47090;DHT22;32840;52.516;13.294;2023-05-07T00:02:52;10.50;99.90
47090;DHT22;32840;52.516;13.294;2023-05-07T00:05:37;10.50;99.90
47090;DHT22;32840;52.516;13.294;2023-05-07T00:08:22;10.50;99.90
47090;DHT22;32840;52.516;13.294;2023-05-07T00:11:07;10.50;99.90
47090;DHT22;32840;52.516;13.294;2023-05-07T00:13:52;10.50;99.90
47090;DHT22;32840;52.516;13.294;2023-05-07T00:16:37;10.60;99.90
47090;DHT22;32840;52.516;13.294;2023-05-07T00:19:22;10.60;99.90
47090;DHT22;32840;52.516;13.294;2023-05-07T00:22:08;10.60;99.90
47090;DHT22;32840;52.516;13.294;2023-05-07T00:24:53;10.60;99.90
47090;DHT22;32840;52.516;13.294;2023-05-07T00:27:39;10.60;99.90
47090;DHT22;32840;52.516;13.294;2023-05-07T00:30:23;10.60;99.90
47090;DHT22;32840;52.516;13.294;2023-05-07T00:33:08;10.60;99.90
47090;DHT22;32840;52.516;13.294;2023-05-07T00:35:53;10.50;99.90
47090;DHT22;32840;52.516;13.294;2023-05-07T00:38:38;10.50;99.90
47090;DHT22;32840;52.516;13.294;2023-05-07T00:41:24;10.60;99.90
47090;DHT22;32840;52.516;13.294;2023-05-07T00:44:09;10.60;99.90
47090;DHT22;32840;52.516;13.294;2023-05-07T00:46:54;10.60;99.90
47090;DHT22;32840;52.516;13.294;2023-05-07T00:49:44;10.60;99.90
47090;DHT22;32840;52.516;13.294;2023-05-07T00:52:29;10.60;99.90
47090;DHT22;32840;52.516;13.294;2023-05-07T00:55:14;10.60;99.90
47090;DHT22;32840;52.516;13.294;2023-05-07T00:57:59;10.60;99.90
47090;DHT22;32840;52.516;13.294;2023-05-07T01:00:44;10.70;99.90
47090;DHT22;32840;52.516;13.294;2023-05-07T01:03:29;10.60;99.90
47090;DHT22;32840;52.516;13.294;2023-05-07T01:06:14;10.60;99.90
47090;DHT22;32840;52.516;13.294;2023-05-07T01:09:01;10.70;99.90
47090;DHT22;32840;52.516;13.294;2023-05-07T01:11:50;10.60;99.90
47090;DHT22;32840;52.516;13.294;2023-05-07T01:14:35;10.60;99.90
47090;DHT22;32840;52.516;13.294;2023-05-07T01:17:20;10.50;99.90
47090;DHT22;32840;52.516;13.294;2023-05-07T01:20:06;10.50;99.90
47090;DHT22;32840;52.516;13.294;2023-05-07T01:22:52;10.50;99.90
47090;DHT22;32840;52.516;13.294;2023-05-07T01:25:37;10.50;99.90
47090;DHT22;32840;52.516;13.294;2023-05-07T01:28:22;10.60;99.90
47090;DHT22;32840;52.516;13.294;2023-05-07T01:31:08;10.60;99.90
47090;DHT22;32840;52.516;13.294;2023-05-07T01:33:54;10.60;99.90
47090;DHT22;32840;52.516;13.294;2023-05-07T01:36:39;10.60;99.90
47090;DHT22;32840;52.516;13.294;2023-05-07T01:39:28;10.50;99.90
47090;DHT22;32840;52.516;13.294;2023-05-07T01:42:13;10.50;99.90
47090;DHT22;32840;52.516;13.294;2023-05-07T01:44:59;10.50;99.90
47090;DHT22;32840;52.516;13.294;2023-05-07T01:47:44;10.50;99.90
47090;DHT22;32840;52.516;13.294;2023-05-07T01:50:30;10.50;99.90
47090;DHT22;32840;52.516;13.294;2023-05-07T01:53:15;10.50;99.90
47090;DHT22;32840;52.516;13.294;2023-05-07T01:56:00;10.50;99.90
47090;DHT22;32840;52.516;13.294;2023-05-07T01:58:46;10.50;99.90
47090;DHT22;32840;52.516;13.294;2023-05-07T02:01:31;10.60;99.90
47090;DHT22;32840;52.516;13.294;2023-05-07T02:04:16;10.60;99.90
47090;DHT22;32840;52.516;13.294;2023-05-07T02:07:01;10.50;99.90
47090;DHT22;32840;52.516;13.294;2023-05-07T02:09:46;10.50;99.90
47090;DHT22;32840;52.516;13.294;2023-05-07T02:12:31;10.40;99.90
47090;DHT22;32840;52.516;13.294;2023-05-07T02:15:16;10.50;99.90
47090;DHT22;32840;52.516;13.294;2023-05-07T02:18:06;10.50;99.90
47090;DHT22;32840;52.516;13.294;2023-05-07T02:20:51;10.40;99.90
47090;DHT22;32840;52.516;13.294;2023-05-07T02:23:36;10.30;99.90
47090;DHT22;32840;52.516;13.294;2023-05-07T02:26:21;10.30;99.90
47090;DHT22;32840;52.516;13.294;2023-05-07T02:29:05;10.30;99.90
47090;DHT22;32840;52.516;13.294;2023-05-07T02:31:50;10.30;99.90
47090;DHT22;32840;52.516;13.294;2023-05-07T02:34:37;10.40;99.90
47090;DHT22;32840;52.516;13.294;2023-05-07T02:37:22;10.40;99.90
47090;DHT22;32840;52.516;13.294;2023-05-07T02:40:07;10.30;99.90
47090;DHT22;32840;52.516;13.294;2023-05-07T02:42:52;10.40;99.90
47090;DHT22;32840;52.516;13.294;2023-05-07T02:45:37;10.40;99.90
47090;DHT22;32840;52.516;13.294;2023-05-07T02:48:22;10.40;99.90
47090;DHT22;32840;52.516;13.294;2023-05-07T02:51:07;10.40;99.90
47090;DHT22;32840;52.516;13.294;2023-05-07T02:53:52;10.40;99.90
47090;DHT22;32840;52.516;13.294;2023-05-07T02:56:37;10.40;99.90
47090;DHT22;32840;52.516;13.294;2023-05-07T02:59:21;10.20;99.90
47090;DHT22;32840;52.516;13.294;2023-05-07T03:02:06;10.20;99.90
47090;DHT22;32840;52.516;13.294;2023-05-07T03:04:51;10.20;99.90
47090;DHT22;32840;52.516;13.294;2023-05-07T03:07:36;10.30;99.90
47090;DHT22;32840;52.516;13.294;2023-05-07T03:10:21;10.30;99.90
47090;DHT22;32840;52.516;13.294;2023-05-07T03:13:06;10.30;99.90
47090;DHT22;32840;52.516;13.294;2023-05-07T03:15:51;10.30;99.90
47090;DHT22;32840;52.516;13.294;2023-05-07T03:18:36;10.30;99.90
47090;DHT22;32840;52.516;13.294;2023-05-07T03:21:21;10.30;99.90
47090;DHT22;32840;52.516;13.294;2023-05-07T03:24:06;10.30;99.90
47090;DHT22;32840;52.516;13.294;2023-05-07T03:26:50;10.30;99.90
47090;DHT22;32840;52.516;13.294;2023-05-07T03:29:35;10.40;99.90
47090;DHT22;32840;52.516;13.294;2023-05-07T03:32:20;10.40;99.90
47090;DHT22;32840;52.516;13.294;2023-05-07T03:35:06;10.40;99.90
47090;DHT22;32840;52.516;13.294;2023-05-07T03:37:51;10.30;99.90
47090;DHT22;32840;52.516;13.294;2023-05-07T03:40:35;10.20;99.90
47090;DHT22;32840;52.516;13.294;2023-05-07T03:43:20;10.30;99.90
47090;DHT22;32840;52.516;13.294;2023-05-07T03:46:06;10.30;99.90
47090;DHT22;32840;52.516;13.294;2023-05-07T03:48:50;10.30;99.90
47090;DHT22;32840;52.516;13.294;2023-05-07T03:51:35;10.30;99.90
47090;DHT22;32840;52.516;13.294;2023-05-07T03:54:20;10.40;99.90
47090;DHT22;32840;52.516;13.294;2023-05-07T03:57:05;10.40;99.90
47090;DHT22;32840;52.516;13.294;2023-05-07T03:59:50;10.30;99.90
47090;DHT22;32840;52.516;13.294;2023-05-07T04:02:35;10.30;99.90
47090;DHT22;32840;52.516;13.294;2023-05-07T04:05:20;10.20;99.90
47090;DHT22;32840;52.516;13.294;2023-05-07T04:08:05;10.20;99.90
47090;DHT22;32840;52.516;13.294;2023-05-07T04:10:57;10.20;99.90
47090;DHT22;32840;52.516;13.294;2023-05-07T04:13:42;10.20;99.90
47090;DHT22;32840;52.516;13.294;2023-05-07T04:16:27;10.20;99.90
47090;DHT22;32840;52.516;13.294;2023-05-07T04:19:12;10.30;99.90
47090;DHT22;32840;52.516;13.294;2023-05-07T04:21:57;10.30;99.90
47090;DHT22;32840;52.516;13.294;2023-05-07T04:24:42;10.30;99.90
47090;DHT22;32840;52.516;13.294;2023-05-07T04:27:27;10.30;99.90
47090;DHT22;32840;52.516;13.294;2023-05-07T04:30:12;10.40;99.90
47090;DHT22;32840;52.516;13.294;2023-05-07T04:32:58;10.50;99.90
47090;DHT22;32840;52.516;13.294;2023-05-07T04:35:43;10.40;99.90
47090;DHT22;32840;52.516;13.294;2023-05-07T04:38:31;10.40;99.90
47090;DHT22;32840;52.516;13.294;2023-05-07T04:41:16;10.50;99.90
47090;DHT22;32840;52.516;13.294;2023-05-07T04:44:00;10.50;99.90
47090;DHT22;32840;52.516;13.294;2023-05-07T04:46:49;10.50;99.90
47090;DHT22;32840;52.516;13.294;2023-05-07T04:49:34;10.40;99.90
47090;DHT22;32840;52.516;13.294;2023-05-07T04:52:19;10.40;99.90
47090;DHT22;32840;52.516;13.294;2023-05-07T04:55:04;10.30;99.90
47090;DHT22;32840;52.516;13.294;2023-05-07T04:57:49;10.40;99.90
47090;DHT22;32840;52.516;13.294;2023-05-07T05:00:34;10.30;99.90
47090;DHT22;32840;52.516;13.294;2023-05-07T05:03:19;10.40;99.90
47090;DHT22;32840;52.516;13.294;2023-05-07T05:06:04;10.40;99.90
47090;DHT22;32840;52.516;13.294;2023-05-07T05:08:50;10.40;99.90
47090;DHT22;32840;52.516;13.294;2023-05-07T05:11:35;10.40;99.90
47090;DHT22;32840;52.516;13.294;2023-05-07T05:14:19;10.40;99.90
47090;DHT22;32840;52.516;13.294;2023-05-07T05:17:04;10.40;99.90
47090;DHT22;32840;52.516;13.294;2023-05-07T05:19:49;10.40;99.90
47090;DHT22;32840;52.516;13.294;2023-05-07T05:22:34;10.50;99.90
47090;DHT22;32840;52.516;13.294;2023-05-07T05:25:19;10.50;99.90
47090;DHT22;32840;52.516;13.294;2023-05-07T05:28:04;10.50;99.90
47090;DHT22;32840;52.516;13.294;2023-05-07T05:30:49;10.60;99.90
47090;DHT22;32840;52.516;13.294;2023-05-07T05:33:34;10.60;99.90
47090;DHT22;32840;52.516;13.294;2023-05-07T05:36:19;10.70;99.90
47090;DHT22;32840;52.516;13.294;2023-05-07T05:39:04;10.80;99.90
47090;DHT22;32840;52.516;13.294;2023-05-07T05:41:49;10.70;99.90
47090;DHT22;32840;52.516;13.294;2023-05-07T05:44:34;10.70;99.90
47090;DHT22;32840;52.516;13.294;2023-05-07T05:47:19;10.80;99.90
47090;DHT22;32840;52.516;13.294;2023-05-07T05:50:05;10.80;99.90
47090;DHT22;32840;52.516;13.294;2023-05-07T05:52:50;10.70;99.90
47090;DHT22;32840;52.516;13.294;2023-05-07T05:55:35;10.80;99.90
47090;DHT22;32840;52.516;13.294;2023-05-07T05:58:20;10.90;99.90
47090;DHT22;32840;52.516;13.294;2023-05-07T06:01:05;11.00;99.90
47090;DHT22;32840;52.516;13.294;2023-05-07T06:03:50;11.00;99.90
47090;DHT22;32840;52.516;13.294;2023-05-07T06:06:35;11.00;99.90
47090;DHT22;32840;52.516;13.294;2023-05-07T06:09:20;11.10;99.90
47090;DHT22;32840;52.516;13.294;2023-05-07T06:12:04;11.10;99.90
47090;DHT22;32840;52.516;13.294;2023-05-07T06:14:49;11.10;99.90
47090;DHT22;32840;52.516;13.294;2023-05-07T06:17:34;11.20;99.90
47090;DHT22;32840;52.516;13.294;2023-05-07T06:20:19;11.30;99.90
47090;DHT22;32840;52.516;13.294;2023-05-07T06:23:04;11.20;99.90
47090;DHT22;32840;52.516;13.294;2023-05-07T06:25:49;11.30;99.90
47090;DHT22;32840;52.516;13.294;2023-05-07T06:28:35;11.30;99.90
47090;DHT22;32840;52.516;13.294;2023-05-07T06:31:22;11.30;99.90
47090;DHT22;32840;52.516;13.294;2023-05-07T06:34:07;11.20;99.90
47090;DHT22;32840;52.516;13.294;2023-05-07T06:36:52;11.20;99.90
47090;DHT22;32840;52.516;13.294;2023-05-07T06:39:37;11.30;99.90
47090;DHT22;32840;52.516;13.294;2023-05-07T06:42:22;11.40;99.90
47090;DHT22;32840;52.516;13.294;2023-05-07T06:45:07;11.50;99.90
47090;DHT22;32840;52.516;13.294;2023-05-07T06:47:53;11.50;99.90
47090;DHT22;32840;52.516;13.294;2023-05-07T06:50:37;11.50;99.90
47090;DHT22;32840;52.516;13.294;2023-05-07T06:53:23;11.50;99.90
47090;DHT22;32840;52.516;13.294;2023-05-07T06:56:08;11.40;99.90
47090;DHT22;32840;52.516;13.294;2023-05-07T06:58:53;11.60;99.90
47090;DHT22;32840;52.516;13.294;2023-05-07T07:01:38;11.60;99.90
47090;DHT22;32840;52.516;13.294;2023-05-07T07:04:23;11.60;99.90
47090;DHT22;32840;52.516;13.294;2023-05-07T07:07:09;11.60;99.90
47090;DHT22;32840;52.516;13.294;2023-05-07T07:09:53;11.70;99.90
47090;DHT22;32840;52.516;13.294;2023-05-07T07:12:38;11.70;99.90
47090;DHT22;32840;52.516;13.294;2023-05-07T07:15:23;11.70;99.90
47090;DHT22;32840;52.516;13.294;2023-05-07T07:18:09;11.80;99.90
47090;DHT22;32840;52.516;13.294;2023-05-07T07:20:54;11.90;99.90
47090;DHT22;32840;52.516;13.294;2023-05-07T07:23:39;12.00;99.90
47090;DHT22;32840;52.516;13.294;2023-05-07T07:26:23;12.10;99.90
47090;DHT22;32840;52.516;13.294;2023-05-07T07:29:09;12.20;99.90
47090;DHT22;32840;52.516;13.294;2023-05-07T07:31:53;12.30;99.90
47090;DHT22;32840;52.516;13.294;2023-05-07T07:34:39;12.30;99.90
47090;DHT22;32840;52.516;13.294;2023-05-07T07:37:24;12.30;99.90
47090;DHT22;32840;52.516;13.294;2023-05-07T07:40:11;12.30;99.90
47090;DHT22;32840;52.516;13.294;2023-05-07T07:42:56;12.50;99.90
47090;DHT22;32840;52.516;13.294;2023-05-07T07:45:41;12.60;99.90
47090;DHT22;32840;52.516;13.294;2023-05-07T07:48:26;12.80;99.90
47090;DHT22;32840;52.516;13.294;2023-05-07T07:51:11;12.90;99.90
47090;DHT22;32840;52.516;13.294;2023-05-07T07:53:56;13.00;99.90
47090;DHT22;32840;52.516;13.294;2023-05-07T07:56:42;13.00;99.90
47090;DHT22;32840;52.516;13.294;2023-05-07T07:59:26;13.20;99.90
47090;DHT22;32840;52.516;13.294;2023-05-07T08:02:11;13.30;99.90
47090;DHT22;32840;52.516;13.294;2023-05-07T08:04:56;13.60;99.90
47090;DHT22;32840;52.516;13.294;2023-05-07T08:07:41;14.10;99.90
47090;DHT22;32840;52.516;13.294;2023-05-07T08:10:26;14.40;99.90
47090;DHT22;32840;52.516;13.294;2023-05-07T08:13:11;14.50;99.90
47090;DHT22;32840;52.516;13.294;2023-05-07T08:15:56;14.70;99.90
47090;DHT22;32840;52.516;13.294;2023-05-07T08:18:41;15.00;99.90
47090;DHT22;32840;52.516;13.294;2023-05-07T08:21:26;15.20;99.90
47090;DHT22;32840;52.516;13.294;2023-05-07T08:24:11;15.30;99.90
47090;DHT22;32840;52.516;13.294;2023-05-07T08:26:56;15.60;99.90
47090;DHT22;32840;52.516;13.294;2023-05-07T08:29:41;15.90;99.90
47090;DHT22;32840;52.516;13.294;2023-05-07T08:32:25;16.10;99.90
47090;DHT22;32840;52.516;13.294;2023-05-07T08:35:10;16.20;98.40
47090;DHT22;32840;52.516;13.294;2023-05-07T08:37:55;15.90;97.40
47090;DHT22;32840;52.516;13.294;2023-05-07T08:40:40;15.90;97.70
47090;DHT22;32840;52.516;13.294;2023-05-07T08:43:26;15.90;98.70
47090;DHT22;32840;52.516;13.294;2023-05-07T08:46:12;16.10;97.40
47090;DHT22;32840;52.516;13.294;2023-05-07T08:49:01;16.10;97.40
47090;DHT22;32840;52.516;13.294;2023-05-07T08:51:47;16.00;97.50
47090;DHT22;32840;52.516;13.294;2023-05-07T08:54:31;16.60;95.80
47090;DHT22;32840;52.516;13.294;2023-05-07T08:57:16;16.80;94.10
47090;DHT22;32840;52.516;13.294;2023-05-07T09:00:03;16.70;93.90
47090;DHT22;32840;52.516;13.294;2023-05-07T09:02:48;16.30;94.40
47090;DHT22;32840;52.516;13.294;2023-05-07T09:05:33;16.60;94.00
47090;DHT22;32840;52.516;13.294;2023-05-07T09:08:18;16.80;92.90
47090;DHT22;32840;52.516;13.294;2023-05-07T09:11:03;16.70;92.00
47090;DHT22;32840;52.516;13.294;2023-05-07T09:13:49;16.80;92.60
47090;DHT22;32840;52.516;13.294;2023-05-07T09:16:34;17.00;92.50
47090;DHT22;32840;52.516;13.294;2023-05-07T09:19:23;16.70;91.70
47090;DHT22;32840;52.516;13.294;2023-05-07T09:22:09;16.50;92.20
47090;DHT22;32840;52.516;13.294;2023-05-07T09:24:55;16.20;93.00
47090;DHT22;32840;52.516;13.294;2023-05-07T09:27:41;15.90;93.40
47090;DHT22;32840;52.516;13.294;2023-05-07T09:30:31;15.90;94.00
47090;DHT22;32840;52.516;13.294;2023-05-07T09:33:16;16.00;93.40
47090;DHT22;32840;52.516;13.294;2023-05-07T09:36:06;16.20;93.90
47090;DHT22;32840;52.516;13.294;2023-05-07T09:38:51;16.30;93.70
47090;DHT22;32840;52.516;13.294;2023-05-07T09:41:43;16.20;93.10
47090;DHT22;32840;52.516;13.294;2023-05-07T09:44:29;16.20;93.70
47090;DHT22;32840;52.516;13.294;2023-05-07T09:47:18;16.20;93.00
47090;DHT22;32840;52.516;13.294;2023-05-07T09:50:05;16.20;94.00
47090;DHT22;32840;52.516;13.294;2023-05-07T09:52:53;16.30;93.80
47090;DHT22;32840;52.516;13.294;2023-05-07T09:55:39;16.00;93.10
47090;DHT22;32840;52.516;13.294;2023-05-07T09:58:25;15.90;93.70
47090;DHT22;32840;52.516;13.294;2023-05-07T10:01:11;15.90;93.50
47090;DHT22;32840;52.516;13.294;2023-05-07T10:03:57;16.00;93.60
47090;DHT22;32840;52.516;13.294;2023-05-07T10:06:42;16.00;93.40
47090;DHT22;32840;52.516;13.294;2023-05-07T10:09:28;15.90;93.80
47090;DHT22;32840;52.516;13.294;2023-05-07T10:12:13;16.10;93.30
47090;DHT22;32840;52.516;13.294;2023-05-07T10:14:59;16.20;93.20
47090;DHT22;32840;52.516;13.294;2023-05-07T10:17:44;16.40;92.70
47090;DHT22;32840;52.516;13.294;2023-05-07T10:20:30;16.40;92.10
47090;DHT22;32840;52.516;13.294;2023-05-07T10:23:19;16.30;92.70
47090;DHT22;32840;52.516;13.294;2023-05-07T10:26:08;16.20;92.70
47090;DHT22;32840;52.516;13.294;2023-05-07T10:28:59;15.90;92.10
47090;DHT22;32840;52.516;13.294;2023-05-07T10:31:52;15.60;92.80
47090;DHT22;32840;52.516;13.294;2023-05-07T10:34:43;15.70;92.80
47090;DHT22;32840;52.516;13.294;2023-05-07T10:37:29;15.90;92.00
47090;DHT22;32840;52.516;13.294;2023-05-07T10:40:14;16.00;92.50
47090;DHT22;32840;52.516;13.294;2023-05-07T10:43:02;15.90;92.20
47090;DHT22;32840;52.516;13.294;2023-05-07T10:46:19;16.00;92.10
47090;DHT22;32840;52.516;13.294;2023-05-07T10:52:17;16.00;91.10
47090;DHT22;32840;52.516;13.294;2023-05-07T10:58:23;16.00;91.30
47090;DHT22;32840;52.516;13.294;2023-05-07T11:01:09;16.10;91.20
47090;DHT22;32840;52.516;13.294;2023-05-07T11:04:16;16.00;91.00
47090;DHT22;32840;52.516;13.294;2023-05-07T11:15:40;16.40;90.20
47090;DHT22;32840;52.516;13.294;2023-05-07T11:18:52;16.40;89.00
47090;DHT22;32840;52.516;13.294;2023-05-07T11:21:39;16.30;89.00
47090;DHT22;32840;52.516;13.294;2023-05-07T11:24:25;16.30;88.70
47090;DHT22;32840;52.516;13.294;2023-05-07T11:27:10;16.40;89.80
47090;DHT22;32840;52.516;13.294;2023-05-07T11:29:55;16.60;89.60
47090;DHT22;32840;52.516;13.294;2023-05-07T11:32:40;16.70;86.90
47090;DHT22;32840;52.516;13.294;2023-05-07T11:35:26;16.50;85.70
47090;DHT22;32840;52.516;13.294;2023-05-07T11:38:12;16.50;86.90
47090;DHT22;32840;52.516;13.294;2023-05-07T11:40:58;16.70;84.30
47090;DHT22;32840;52.516;13.294;2023-05-07T11:43:58;16.80;84.60
47090;DHT22;32840;52.516;13.294;2023-05-07T11:46:44;17.10;82.70
47090;DHT22;32840;52.516;13.294;2023-05-07T11:49:30;17.20;81.10
47090;DHT22;32840;52.516;13.294;2023-05-07T11:52:15;17.30;81.90
47090;DHT22;32840;52.516;13.294;2023-05-07T11:55:01;17.00;83.70
47090;DHT22;32840;52.516;13.294;2023-05-07T11:57:47;17.00;84.30
47090;DHT22;32840;52.516;13.294;2023-05-07T12:00:32;16.70;85.10
47090;DHT22;32840;52.516;13.294;2023-05-07T12:03:17;16.40;84.50
47090;DHT22;32840;52.516;13.294;2023-05-07T12:06:02;16.40;84.90
47090;DHT22;32840;52.516;13.294;2023-05-07T12:08:49;16.40;84.40
47090;DHT22;32840;52.516;13.294;2023-05-07T12:11:34;16.50;85.70
47090;DHT22;32840;52.516;13.294;2023-05-07T12:14:19;16.60;85.40
47090;DHT22;32840;52.516;13.294;2023-05-07T12:17:05;16.50;84.90
47090;DHT22;32840;52.516;13.294;2023-05-07T12:19:50;16.70;85.80
47090;DHT22;32840;52.516;13.294;2023-05-07T12:22:36;17.00;84.40
47090;DHT22;32840;52.516;13.294;2023-05-07T12:25:21;17.10;84.00
47090;DHT22;32840;52.516;13.294;2023-05-07T12:28:07;17.10;83.40
47090;DHT22;32840;52.516;13.294;2023-05-07T12:30:52;17.10;81.70
47090;DHT22;32840;52.516;13.294;2023-05-07T12:33:38;16.90;81.60
47090;DHT22;32840;52.516;13.294;2023-05-07T12:36:24;16.70;81.40
47090;DHT22;32840;52.516;13.294;2023-05-07T12:39:10;16.40;81.10
47090;DHT22;32840;52.516;13.294;2023-05-07T12:41:56;16.50;82.30
47090;DHT22;32840;52.516;13.294;2023-05-07T12:44:45;16.60;82.60
47090;DHT22;32840;52.516;13.294;2023-05-07T12:47:31;16.60;79.90
47090;DHT22;32840;52.516;13.294;2023-05-07T12:50:17;16.80;80.00
47090;DHT22;32840;52.516;13.294;2023-05-07T12:53:04;17.00;78.70
47090;DHT22;32840;52.516;13.294;2023-05-07T12:55:52;17.30;79.50
47090;DHT22;32840;52.516;13.294;2023-05-07T12:58:37;17.40;79.10
47090;DHT22;32840;52.516;13.294;2023-05-07T13:01:22;17.50;78.20
47090;DHT22;32840;52.516;13.294;2023-05-07T13:04:12;17.40;77.50
47090;DHT22;32840;52.516;13.294;2023-05-07T13:06:58;17.40;77.30
47090;DHT22;32840;52.516;13.294;2023-05-07T13:09:43;17.50;78.20
47090;DHT22;32840;52.516;13.294;2023-05-07T13:12:28;17.60;76.80
47090;DHT22;32840;52.516;13.294;2023-05-07T13:15:12;17.50;76.70
47090;DHT22;32840;52.516;13.294;2023-05-07T13:17:57;17.40;77.50
47090;DHT22;32840;52.516;13.294;2023-05-07T13:20:42;17.40;78.00
47090;DHT22;32840;52.516;13.294;2023-05-07T13:23:28;17.60;77.10
47090;DHT22;32840;52.516;13.294;2023-05-07T13:26:13;17.70;76.70
47090;DHT22;32840;52.516;13.294;2023-05-07T13:28:57;17.80;75.70
47090;DHT22;32840;52.516;13.294;2023-05-07T13:31:42;17.80;74.90
47090;DHT22;32840;52.516;13.294;2023-05-07T13:34:28;17.50;74.50
47090;DHT22;32840;52.516;13.294;2023-05-07T13:37:13;17.40;74.20
47090;DHT22;32840;52.516;13.294;2023-05-07T13:39:58;17.30;75.10
47090;DHT22;32840;52.516;13.294;2023-05-07T13:42:43;17.40;74.80
47090;DHT22;32840;52.516;13.294;2023-05-07T13:45:29;17.30;75.30
47090;DHT22;32840;52.516;13.294;2023-05-07T13:48:14;17.50;74.10
47090;DHT22;32840;52.516;13.294;2023-05-07T13:50:59;17.40;73.20
47090;DHT22;32840;52.516;13.294;2023-05-07T13:53:44;17.30;73.10
47090;DHT22;32840;52.516;13.294;2023-05-07T13:56:29;17.30;73.20
47090;DHT22;32840;52.516;13.294;2023-05-07T13:59:15;17.40;72.90
47090;DHT22;32840;52.516;13.294;2023-05-07T14:02:00;17.40;71.80
47090;DHT22;32840;52.516;13.294;2023-05-07T14:04:45;17.30;72.30
47090;DHT22;32840;52.516;13.294;2023-05-07T14:07:30;17.40;72.90
47090;DHT22;32840;52.516;13.294;2023-05-07T14:10:15;17.50;72.70
47090;DHT22;32840;52.516;13.294;2023-05-07T14:13:00;17.70;71.80
47090;DHT22;32840;52.516;13.294;2023-05-07T14:15:45;17.70;71.30
47090;DHT22;32840;52.516;13.294;2023-05-07T14:18:30;17.70;70.10
47090;DHT22;32840;52.516;13.294;2023-05-07T14:21:15;17.70;70.10
47090;DHT22;32840;52.516;13.294;2023-05-07T14:24:01;17.70;70.30
47090;DHT22;32840;52.516;13.294;2023-05-07T14:26:45;17.70;70.90
47090;DHT22;32840;52.516;13.294;2023-05-07T14:29:30;18.00;69.80
47090;DHT22;32840;52.516;13.294;2023-05-07T14:32:15;18.00;69.00
47090;DHT22;32840;52.516;13.294;2023-05-07T14:35:00;18.00;69.00
47090;DHT22;32840;52.516;13.294;2023-05-07T14:37:45;18.00;69.60
47090;DHT22;32840;52.516;13.294;2023-05-07T14:40:30;18.00;70.40
47090;DHT22;32840;52.516;13.294;2023-05-07T14:43:14;18.10;70.30
47090;DHT22;32840;52.516;13.294;2023-05-07T14:45:59;18.10;69.30
47090;DHT22;32840;52.516;13.294;2023-05-07T14:48:45;18.20;70.30
47090;DHT22;32840;52.516;13.294;2023-05-07T14:51:30;18.20;69.50
47090;DHT22;32840;52.516;13.294;2023-05-07T14:54:15;18.00;70.00
47090;DHT22;32840;52.516;13.294;2023-05-07T14:57:01;17.80;70.40
47090;DHT22;32840;52.516;13.294;2023-05-07T14:59:46;17.60;70.70
47090;DHT22;32840;52.516;13.294;2023-05-07T15:02:31;17.60;70.60
47090;DHT22;32840;52.516;13.294;2023-05-07T15:05:16;17.60;69.50
47090;DHT22;32840;52.516;13.294;2023-05-07T15:08:03;17.60;70.10
47090;DHT22;32840;52.516;13.294;2023-05-07T15:10:48;17.50;70.00
47090;DHT22;32840;52.516;13.294;2023-05-07T15:13:33;17.60;70.20
47090;DHT22;32840;52.516;13.294;2023-05-07T15:16:18;17.50;69.90
47090;DHT22;32840;52.516;13.294;2023-05-07T15:19:03;17.50;70.10
47090;DHT22;32840;52.516;13.294;2023-05-07T15:21:48;17.30;69.70
47090;DHT22;32840;52.516;13.294;2023-05-07T15:24:33;17.10;70.20
47090;DHT22;32840;52.516;13.294;2023-05-07T15:27:18;16.90;71.10
47090;DHT22;32840;52.516;13.294;2023-05-07T15:30:03;16.80;71.80
47090;DHT22;32840;52.516;13.294;2023-05-07T15:32:48;16.80;72.30
47090;DHT22;32840;52.516;13.294;2023-05-07T15:35:33;16.90;72.80
47090;DHT22;32840;52.516;13.294;2023-05-07T15:38:18;17.00;72.80
47090;DHT22;32840;52.516;13.294;2023-05-07T15:41:03;16.80;72.80
47090;DHT22;32840;52.516;13.294;2023-05-07T15:43:50;16.80;73.20
47090;DHT22;32840;52.516;13.294;2023-05-07T15:46:35;16.70;73.50
47090;DHT22;32840;52.516;13.294;2023-05-07T15:49:20;16.70;73.50
47090;DHT22;32840;52.516;13.294;2023-05-07T15:52:06;16.80;73.50
47090;DHT22;32840;52.516;13.294;2023-05-07T15:54:51;16.80;73.20
47090;DHT22;32840;52.516;13.294;2023-05-07T15:57:36;16.80;72.70
47090;DHT22;32840;52.516;13.294;2023-05-07T16:00:21;16.90;73.20
47090;DHT22;32840;52.516;13.294;2023-05-07T16:03:06;16.80;73.30
47090;DHT22;32840;52.516;13.294;2023-05-07T16:05:52;16.60;73.30
47090;DHT22;32840;52.516;13.294;2023-05-07T16:08:37;16.60;73.60
47090;DHT22;32840;52.516;13.294;2023-05-07T16:11:24;16.40;73.40
47090;DHT22;32840;52.516;13.294;2023-05-07T16:14:09;16.30;73.90
47090;DHT22;32840;52.516;13.294;2023-05-07T16:16:54;16.30;73.80
47090;DHT22;32840;52.516;13.294;2023-05-07T16:19:39;16.40;74.00
47090;DHT22;32840;52.516;13.294;2023-05-07T16:22:24;16.20;73.40
47090;DHT22;32840;52.516;13.294;2023-05-07T16:25:09;16.20;73.70
47090;DHT22;32840;52.516;13.294;2023-05-07T16:27:55;16.10;73.80
47090;DHT22;32840;52.516;13.294;2023-05-07T16:30:40;16.00;74.00
47090;DHT22;32840;52.516;13.294;2023-05-07T16:33:24;15.90;73.90
47090;DHT22;32840;52.516;13.294;2023-05-07T16:36:10;15.90;74.50
47090;DHT22;32840;52.516;13.294;2023-05-07T16:38:55;15.90;75.00
47090;DHT22;32840;52.516;13.294;2023-05-07T16:41:39;15.90;75.30
47090;DHT22;32840;52.516;13.294;2023-05-07T16:44:24;16.00;75.00
47090;DHT22;32840;52.516;13.294;2023-05-07T16:47:09;16.10;75.00
47090;DHT22;32840;52.516;13.294;2023-05-07T16:49:54;16.10;74.70
47090;DHT22;32840;52.516;13.294;2023-05-07T16:52:39;16.10;74.50
47090;DHT22;32840;52.516;13.294;2023-05-07T16:55:24;16.10;74.70
47090;DHT22;32840;52.516;13.294;2023-05-07T16:58:10;16.10;74.80
47090;DHT22;32840;52.516;13.294;2023-05-07T17:00:55;16.20;75.10
47090;DHT22;32840;52.516;13.294;2023-05-07T17:03:40;16.20;75.20
47090;DHT22;32840;52.516;13.294;2023-05-07T17:06:24;16.20;74.60
47090;DHT22;32840;52.516;13.294;2023-05-07T17:09:09;16.00;74.70
47090;DHT22;32840;52.516;13.294;2023-05-07T17:11:54;15.90;74.80
47090;DHT22;32840;52.516;13.294;2023-05-07T17:14:39;15.80;74.60
47090;DHT22;32840;52.516;13.294;2023-05-07T17:17:24;15.60;75.30
47090;DHT22;32840;52.516;13.294;2023-05-07T17:20:10;15.50;75.80
47090;DHT22;32840;52.516;13.294;2023-05-07T17:22:55;15.50;75.70